Flight Track Log - Related Links

Times and Time Zones

All times are in EDT time to prevent confusion due to time zone crossing. See the ASQ5827 flight status page for this flight to view local times or setup timezone preferences in your user account.


Time Position Orientation Groundspeed Altitude Reporting Facility
EDT Latitude Longitude Course Direction KTS MPH feet Rate Location/Type
Sun 08:50:20 AM 41.9833 -87.8167 90° East 195 224 3,400  Level Chicago TRACON
Sun 08:51:20 AM 41.9833 -87.7333 90° East 218 251 5,800 2,286 Climbing Chicago TRACON
Sun 08:52:00 AM 41.9642 -87.5084 98° East  Level FlightAware Approximate
Sun 08:52:26 AM 41.9833 -87.6333 90° East 251 289 8,200  Level Chicago TRACON
Sun 08:53:00 AM 41.9512 -87.3790 98° East  Level FlightAware Approximate
Sun 08:54:00 AM 41.9417 -87.2490 95° East  Level FlightAware Approximate
Sun 08:54:50 AM 41.9647 -87.4025 96° East 281 323 13,000  Level Chicago Center
Sun 08:55:00 AM 41.9333 -87.1190 90° East  Level FlightAware Approximate
Sun 08:55:51 AM 41.9578 -87.2917 95° East 297 342 14,200  Level Chicago Center
Sun 08:56:52 AM 41.9511 -87.1703 94° East 321 369 15,500 1,171 Climbing Chicago Center
Sun 08:57:54 AM 41.9436 -87.0461 95° East 333 383 16,600 1,122 Climbing Chicago Center
Sun 08:58:55 AM 41.9475 -86.9172 88° East 343 395 17,800 1,180 Climbing Chicago Center
Sun 08:59:56 AM 41.9494 -86.7858 89° East 352 405 19,000 1,171 Climbing Chicago Center
Sun 09:00:58 AM 41.9508 -86.6361 89° East 361 415 20,200 1,122 Climbing Chicago Center
Sun 09:01:59 AM 41.9525 -86.4981 89° East 369 425 21,300 1,082 Climbing Chicago Center
Sun 09:03:00 AM 41.9539 -86.3572 89° East 377 434 22,400 1,268 Climbing Chicago Center
Sun 09:04:02 AM 41.9553 -86.2172 89° East 375 432 23,900 1,415 Climbing Chicago Center
Sun 09:05:03 AM 41.9297 -86.0847 104° East 369 425 25,300 1,268 Climbing Chicago Center
Sun 09:06:05 AM 41.9031 -85.9508 105° East 369 425 26,500 836 Climbing Chicago Center
Sun 09:07:05 AM 41.8772 -85.8164 104° East 373 429 27,000 246 Climbing Chicago Center
Sun 09:08:07 AM 41.8489 -85.6739 105° East 391 450 27,000  Level Chicago Center
Sun 09:09:08 AM 41.8128 -85.4922 105° East 415 478 27,000  Level Chicago Center
Sun 09:10:11 AM 41.7811 -85.3356 105° East 426 490 27,000  Level Chicago Center
Sun 09:11:11 AM 41.7489 -85.1775 105° East 432 497 27,000  Level Chicago Center
Sun 09:11:36 AM 41.7369 -85.1139 104° East 431 496 27,000  Level Cleveland Center
Sun 09:12:36 AM 41.7033 -84.9558 106° East 424 488 27,000  Level Cleveland Center
Sun 09:13:36 AM 41.6717 -84.8033 105° East 429 494 27,000  Level Cleveland Center
Sun 09:14:36 AM 41.6397 -84.6483 105° East 429 494 27,000  Level Cleveland Center
Sun 09:15:36 AM 41.5864 -84.5036 116° Southeast 429 494 27,000  Level Cleveland Center
Sun 09:16:36 AM 41.5350 -84.3589 115° Southeast 429 494 27,000  Level Cleveland Center
Sun 09:17:36 AM 41.4850 -84.2283 117° Southeast 429 494 27,000  Level Cleveland Center
Sun 09:18:36 AM 41.4331 -84.0842 116° Southeast 434 499 27,000  Level Cleveland Center
Sun 09:19:36 AM 41.3769 -83.9400 117° Southeast 439 505 27,000  Level Cleveland Center
Sun 09:20:36 AM 41.3247 -83.7961 116° Southeast 439 505 27,000  Level Cleveland Center
Sun 09:21:36 AM 41.2725 -83.6528 116° Southeast 439 505 27,000 -400 Level Cleveland Center
Sun 09:22:36 AM 41.2200 -83.5122 116° Southeast 433 498 26,200 -800 Descending Cleveland Center
Sun 09:23:36 AM 41.1689 -83.3831 118° Southeast 421 484 25,400 -1,350 Descending Cleveland Center
Sun 09:24:36 AM 41.1200 -83.2542 117° Southeast 400 460 23,500 -2,300 Descending Cleveland Center
Sun 09:25:36 AM 41.0669 -83.1058 115° Southeast 393 452 20,800 -2,600 Descending Cleveland Center
Sun 09:26:36 AM 41.0175 -82.9831 118° Southeast 393 452 18,300 -2,400 Descending Cleveland Center
Sun 09:27:36 AM 40.9700 -82.8575 117° Southeast 383 441 16,000 -2,350 Descending Cleveland Center
Sun 09:28:36 AM 40.9264 -82.7458 117° Southeast 357 411 13,600 -2,150 Descending Cleveland Center
Sun 09:29:36 AM 40.8847 -82.6319 116° Southeast 347 399 11,700 -1,250 Descending Cleveland Center
Sun 09:30:36 AM 40.8575 -82.5103 106° East 347 399 11,100 -450 Descending Cleveland Center
Sun 09:31:36 AM 40.8450 -82.3836 97° East 341 392 10,800 -1,050 Descending Cleveland Center
Sun 09:32:36 AM 40.8322 -82.2625 98° East 336 387 9,000 -200 Descending Cleveland Center
Sun 09:33:36 AM 40.8175 -82.1386 99° East 336 387 10,400 550 Climbing Cleveland Center
Sun 09:34:36 AM 40.8231 -82.0236 86° East 323 372 10,100 -600 Descending Cleveland Center
Sun 09:35:36 AM 40.8367 -81.9306 79° East 284 327 9,200 -1,350 Descending Cleveland Center
Sun 09:36:36 AM 40.8458 -81.8539 81° East 255 293 7,400 -1,850 Descending Cleveland Center
Sun 09:37:36 AM 40.8594 -81.7719 78° East 235 270 5,500 -1,900 Descending Cleveland Center
Sun 09:38:36 AM 40.8872 -81.6928 65° Northeast 229 264 3,600 -1,250 Descending Cleveland Center
Sun 09:39:36 AM 40.9275 -81.6356 47° Northeast 217 250 3,000 -600 Descending Cleveland Center

Login

Don't have an account? Register now (free) for customized features, flight alerts, and more!